Time;durP1;ratioP1;P1;durP2;ratioP2;P2;SDS_P1;SDS_P2;PMS_P1;PMS_P2;Temp;Humidity;BMP_temperature;BMP_pressure;BME280_temperature;BME280_humidity;BME280_pressure;Samples;Min_cycle;Max_cycle;Signal;HPM_P1;HPM_P2
2022/07/02 00:01:49;;;;;;;5.30;4.80;;;;;;;22.87;66.39;100613.03;3493707;79;21577;-77
2022/07/02 00:06:42;;;;;;;4.78;4.35;;;;;;;22.79;66.47;100611.52;3471645;79;20971;-78
2022/07/02 00:11:36;;;;;;;5.12;4.62;;;;;;;22.74;66.75;100625.39;3434607;79;20967;-78
2022/07/02 00:16:28;;;;;;;5.40;4.92;;;;;;;22.71;66.86;100657.30;3439905;79;20978;-78
2022/07/02 00:21:20;;;;;;;4.95;4.55;;;;;;;22.72;67.39;100646.25;3477812;79;20929;-77
2022/07/02 00:26:16;;;;;;;5.75;5.25;;;;;;;22.73;67.61;100632.95;3453339;79;20975;-78
2022/07/02 00:31:08;;;;;;;5.37;4.90;;;;;;;22.74;67.75;100613.47;3476328;79;21239;-78
2022/07/02 00:35:59;;;;;;;6.28;5.37;;;;;;;22.74;67.90;100584.78;3496322;80;21134;-78
2022/07/02 00:40:53;;;;;;;5.87;5.03;;;;;;;22.74;68.13;100598.89;3477118;80;21053;-78
2022/07/02 00:45:44;;;;;;;5.15;4.75;;;;;;;22.63;68.32;100585.16;3490783;80;20982;-78
2022/07/02 00:50:35;;;;;;;5.92;5.17;;;;;;;22.63;68.47;100569.27;3420352;79;21025;-79
2022/07/02 00:55:26;;;;;;;5.85;5.33;;;;;;;22.59;68.82;100502.71;3406545;81;22043;-79
2022/07/02 01:00:19;;;;;;;5.47;4.42;;;;;;;22.53;68.98;100487.05;3403330;80;21835;-78
2022/07/02 01:05:18;;;;;;;7.00;5.53;;;;;;;22.44;69.09;100517.38;3428692;80;21017;-79
2022/07/02 01:10:16;;;;;;;8.28;5.90;;;;;;;22.38;69.27;100627.06;3424837;81;21009;-79
2022/07/02 01:15:08;;;;;;;6.55;5.65;;;;;;;22.27;69.77;100666.29;3367798;81;20922;-78
2022/07/02 01:20:03;;;;;;;6.28;5.67;;;;;;;22.27;69.98;100645.10;3395550;81;20954;-78
2022/07/02 01:24:55;;;;;;;8.00;5.78;;;;;;;22.31;70.35;100626.86;3374528;81;40996;-80
2022/07/02 01:29:47;;;;;;;7.15;5.65;;;;;;;22.27;70.31;100696.28;3406679;81;20962;-79
2022/07/02 01:34:49;;;;;;;6.25;5.75;;;;;;;22.25;70.64;100716.62;3446461;80;21544;-80
2022/07/02 01:39:43;;;;;;;7.20;6.30;;;;;;;22.27;70.93;100702.04;3441473;81;20970;-79
2022/07/02 01:44:36;;;;;;;9.45;7.35;;;;;;;22.23;71.01;100710.94;3400197;81;21021;-79
2022/07/02 01:49:27;;;;;;;7.10;6.35;;;;;;;22.20;71.04;100685.91;3424110;81;21216;-80
2022/07/02 01:54:18;;;;;;;7.90;7.15;;;;;;;22.17;71.25;100695.27;3410553;80;21048;-79
2022/07/02 01:59:09;;;;;;;8.55;6.28;;;;;;;22.16;71.15;100705.43;3441932;80;21007;-78
2022/07/02 02:04:01;;;;;;;10.38;7.80;;;;;;;22.05;71.36;100715.03;3391569;80;21023;-78
2022/07/02 02:08:53;;;;;;;7.33;6.70;;;;;;;22.02;71.60;100732.36;3465133;80;21478;-78
2022/07/02 02:13:44;;;;;;;8.65;7.80;;;;;;;21.98;71.95;100730.26;3488703;80;21795;-78
2022/07/02 02:18:35;;;;;;;8.10;7.40;;;;;;;21.98;71.86;100738.20;3462734;80;20869;-78
2022/07/02 02:23:26;;;;;;;7.85;7.08;;;;;;;21.96;72.41;100745.76;3417404;80;21709;-78
2022/07/02 02:28:17;;;;;;;8.30;7.53;;;;;;;21.96;72.40;100767.79;3467435;80;21494;-78
2022/07/02 02:33:09;;;;;;;7.90;7.20;;;;;;;21.93;72.23;100759.97;3423586;80;21011;-79
2022/07/02 02:38:00;;;;;;;8.80;7.87;;;;;;;21.92;72.40;100746.30;3409754;80;22122;-79
2022/07/02 02:42:51;;;;;;;8.70;7.80;;;;;;;21.90;72.60;100738.87;3415844;79;20978;-79
2022/07/02 02:47:42;;;;;;;9.00;8.10;;;;;;;21.88;72.61;100727.47;3452099;79;20940;-78
2022/07/02 02:52:34;;;;;;;9.28;8.48;;;;;;;21.87;72.65;100721.75;3451742;80;21098;-78
2022/07/02 02:57:25;;;;;;;9.25;8.35;;;;;;;21.83;72.71;100717.00;3482082;80;20987;-78
2022/07/02 03:02:16;;;;;;;8.93;8.13;;;;;;;21.82;72.87;100710.43;3399553;79;22391;-78
2022/07/02 03:07:07;;;;;;;10.38;8.58;;;;;;;21.79;73.18;100699.96;3409094;80;20925;-78
2022/07/02 03:11:58;;;;;;;10.08;9.18;;;;;;;21.77;73.26;100698.67;3452673;80;21010;-78
2022/07/02 03:16:49;;;;;;;9.88;8.98;;;;;;;21.78;73.21;100667.78;3450992;80;20996;-78
2022/07/02 03:21:40;;;;;;;10.90;9.48;;;;;;;21.77;73.30;100638.28;3422591;81;20980;-78
2022/07/02 03:26:31;;;;;;;11.55;10.40;;;;;;;21.69;73.26;100597.05;3437417;80;21127;-78
2022/07/02 03:31:22;;;;;;;12.07;11.08;;;;;;;21.61;73.50;100558.52;3420401;79;21459;-78
2022/07/02 03:36:14;;;;;;;12.70;10.50;;;;;;;21.51;73.52;100546.88;3426258;80;21053;-78
2022/07/02 03:41:10;;;;;;;11.28;10.28;;;;;;;21.46;73.90;100580.56;3384760;80;21013;-78
2022/07/02 03:45:58;;;;;;;10.93;9.98;;;;;;;21.50;74.13;100646.13;3444987;80;21004;-78
2022/07/02 03:50:49;;;;;;;12.63;11.43;;;;;;;21.46;74.27;100651.08;3450952;80;21175;-78
2022/07/02 03:55:40;;;;;;;13.93;12.63;;;;;;;21.48;74.39;100674.37;3482376;79;21631;-78
2022/07/02 04:00:32;;;;;;;13.18;11.88;;;;;;;21.58;74.54;100708.92;3462633;80;20994;-78
2022/07/02 04:05:23;;;;;;;14.53;12.98;;;;;;;21.64;74.68;100737.86;3444487;80;20988;-78
2022/07/02 04:10:15;;;;;;;14.40;13.20;;;;;;;21.64;74.83;100727.71;3462757;79;21016;-78
2022/07/02 04:15:06;;;;;;;14.83;13.43;;;;;;;21.71;75.05;100718.69;3424103;80;20969;-78
2022/07/02 04:19:58;;;;;;;14.93;13.62;;;;;;;21.83;75.24;100710.85;3462096;80;21019;-78
2022/07/02 04:24:49;;;;;;;16.57;15.10;;;;;;;21.87;75.31;100715.13;3502944;79;20905;-78
2022/07/02 04:29:41;;;;;;;16.02;14.65;;;;;;;21.99;75.21;100725.36;3383127;81;20986;-78
2022/07/02 04:34:32;;;;;;;17.80;16.10;;;;;;;21.97;75.60;100734.27;3477395;79;20982;-78
2022/07/02 04:39:23;;;;;;;16.97;15.38;;;;;;;21.77;75.90;100716.34;3525480;79;21557;-78
2022/07/02 04:44:14;;;;;;;16.87;15.28;;;;;;;21.67;75.52;100713.94;3535168;79;21153;-78
2022/07/02 04:49:06;;;;;;;16.52;14.83;;;;;;;21.59;75.45;100704.05;3458926;79;20920;-78
2022/07/02 04:53:57;;;;;;;16.07;14.43;;;;;;;21.87;75.41;100712.05;3494068;79;20945;-78
2022/07/02 04:58:48;;;;;;;17.23;14.80;;;;;;;21.86;75.55;100722.22;3445339;79;21006;-78
2022/07/02 05:03:39;;;;;;;12.70;11.50;;;;;;;21.84;75.67;100732.45;3443528;79;21120;-78
2022/07/02 05:08:30;;;;;;;17.20;12.83;;;;;;;21.69;75.76;100750.94;3485374;79;20946;-78
2022/07/02 05:13:23;;;;;;;13.32;12.05;;;;;;;21.49;75.77;100752.37;3491389;80;21006;-78
2022/07/02 05:18:15;;;;;;;20.68;15.03;;;;;;;21.36;75.82;100777.86;3481658;79;21010;-77
2022/07/02 05:23:06;;;;;;;22.02;15.90;;;;;;;21.25;76.10;100792.23;3463430;79;21416;-78
2022/07/02 05:27:58;;;;;;;20.52;16.35;;;;;;;21.16;75.76;100791.15;3450567;81;20989;-77
2022/07/02 05:32:49;;;;;;;17.75;15.60;;;;;;;21.14;76.20;100792.97;3455011;79;21495;-77
2022/07/02 05:37:40;;;;;;;16.82;13.90;;;;;;;21.14;76.28;100800.44;3521699;79;20955;-77
2022/07/02 05:42:31;;;;;;;15.23;13.43;;;;;;;21.11;76.27;100808.90;3473711;79;20948;-77
2022/07/02 05:47:22;;;;;;;19.12;13.85;;;;;;;21.01;76.56;100820.14;3411534;79;21047;-77
2022/07/02 05:52:17;;;;;;;12.82;11.53;;;;;;;20.97;76.40;100825.56;3444949;79;21019;-77
2022/07/02 05:57:06;;;;;;;10.88;9.73;;;;;;;21.03;76.19;100838.61;3481080;79;20985;-77
2022/07/02 06:01:57;;;;;;;12.10;10.90;;;;;;;21.06;76.00;100834.58;3487546;79;20900;-78
2022/07/02 06:11:44;;;;;;;9.93;9.03;;;;;;;21.29;75.90;100832.22;3446820;79;21406;-77
2022/07/02 06:16:36;;;;;;;9.38;8.33;;;;;;;21.29;75.87;100846.76;3451230;80;22004;-77
2022/07/02 06:21:27;;;;;;;9.85;8.93;;;;;;;21.27;75.65;100849.90;3413899;80;20952;-77
2022/07/02 06:26:18;;;;;;;9.23;8.40;;;;;;;21.39;75.60;100857.98;3419358;80;21017;-77
2022/07/02 06:31:10;;;;;;;8.58;7.87;;;;;;;21.41;75.20;100864.53;3431374;80;20991;-77
2022/07/02 06:36:01;;;;;;;8.73;7.85;;;;;;;21.40;75.35;100866.78;3470064;79;21478;-77
2022/07/02 06:40:55;;;;;;;8.58;7.87;;;;;;;21.39;74.62;100887.52;3441865;79;21266;-77
2022/07/02 06:45:45;;;;;;;8.98;8.20;;;;;;;21.38;75.10;100905.63;3455214;79;21020;-77
2022/07/02 06:55:43;;;;;;;9.43;8.53;;;;;;;21.32;74.82;100912.80;3655084;77;22719;-76
2022/07/02 07:00:34;;;;;;;9.30;8.50;;;;;;;21.51;74.87;100915.01;3485255;80;22151;-76
2022/07/02 07:05:25;;;;;;;9.45;8.33;;;;;;;21.62;75.01;100924.00;3467515;79;20975;-76
2022/07/02 07:10:16;;;;;;;9.55;8.45;;;;;;;21.74;74.70;100937.38;3476654;80;21417;-76
2022/07/02 07:15:09;;;;;;;8.53;7.83;;;;;;;21.90;74.06;100936.06;3497529;80;20925;-76
2022/07/02 07:20:01;;;;;;;8.93;8.05;;;;;;;21.91;73.77;100949.72;3525426;80;21571;-76
2022/07/02 07:24:52;;;;;;;9.00;8.18;;;;;;;21.75;73.81;100958.94;3489440;78;20967;-75
2022/07/02 07:29:43;;;;;;;7.55;6.85;;;;;;;21.60;74.26;100968.15;3511422;79;20931;-75
2022/07/02 07:34:34;;;;;;;5.78;5.33;;;;;;;21.49;74.63;100972.37;3507980;80;21057;-75
2022/07/02 07:39:26;;;;;;;5.83;4.92;;;;;;;21.41;74.65;100978.26;3516246;79;21024;-76
2022/07/02 07:44:17;;;;;;;4.97;4.65;;;;;;;21.33;74.88;100976.67;3498171;80;20958;-76
2022/07/02 07:49:10;;;;;;;4.62;4.33;;;;;;;21.31;74.89;100985.09;3526420;79;21135;-76
2022/07/02 07:54:01;;;;;;;5.70;4.75;;;;;;;21.31;74.71;100989.06;3462388;79;21554;-76
2022/07/02 07:58:52;;;;;;;5.63;5.07;;;;;;;21.19;74.90;101006.52;3571597;79;20982;-76
2022/07/02 08:03:44;;;;;;;6.25;5.70;;;;;;;21.13;75.12;101005.36;3530769;79;20924;-76
2022/07/02 08:08:35;;;;;;;7.37;6.67;;;;;;;21.07;75.06;101010.80;3492264;80;21008;-76
2022/07/02 08:13:26;;;;;;;7.00;6.37;;;;;;;21.07;75.39;101008.15;3567395;79;21393;-76
2022/07/02 08:18:17;;;;;;;8.83;6.78;;;;;;;21.26;75.74;101013.41;3509644;79;21409;-76
2022/07/02 08:23:08;;;;;;;7.40;6.90;;;;;;;21.23;75.66;101009.55;3519632;79;22054;-76
2022/07/02 08:27:59;;;;;;;7.62;6.92;;;;;;;21.26;76.08;101018.70;3521599;79;21306;-76
2022/07/02 08:32:51;;;;;;;7.85;7.25;;;;;;;21.23;75.79;101015.26;3504989;79;21008;-76
2022/07/02 08:37:42;;;;;;;7.67;6.97;;;;;;;21.14;75.64;101019.87;3515788;79;21078;-79
2022/07/02 08:42:35;;;;;;;7.78;7.03;;;;;;;21.10;75.77;101020.84;3532423;79;21482;-79
2022/07/02 08:47:27;;;;;;;8.90;8.10;;;;;;;21.22;76.09;101026.30;3542180;79;20931;-79
2022/07/02 08:52:22;;;;;;;8.68;7.78;;;;;;;21.51;75.77;101023.47;3517574;80;20908;-80
2022/07/02 08:57:15;;;;;;;9.18;8.40;;;;;;;21.68;75.00;101041.14;3493582;80;20920;-79
2022/07/02 09:02:08;;;;;;;8.45;7.65;;;;;;;21.67;75.25;101039.39;3512573;80;21848;-80
2022/07/02 09:07:03;;;;;;;8.30;7.60;;;;;;;21.75;74.86;101043.63;3489246;80;20975;-79
2022/07/02 09:11:56;;;;;;;9.20;8.50;;;;;;;21.68;74.87;101049.08;3517874;80;21454;-80
2022/07/02 09:16:49;;;;;;;9.60;8.78;;;;;;;21.68;74.84;101051.73;3496041;80;20936;-79
2022/07/02 09:21:45;;;;;;;11.28;10.38;;;;;;;21.87;74.48;101051.27;3501089;80;21504;-79
2022/07/02 09:26:36;;;;;;;11.25;10.15;;;;;;;21.82;74.28;101045.22;3483631;80;21114;-80
2022/07/02 09:31:32;;;;;;;11.70;10.38;;;;;;;21.72;74.07;101038.43;3474576;80;21025;-80
2022/07/02 09:36:24;;;;;;;10.70;9.80;;;;;;;21.68;74.02;101038.50;3473179;80;20963;-80
2022/07/02 09:41:20;;;;;;;10.03;9.20;;;;;;;21.75;73.91;101040.55;3498644;80;21136;-80
2022/07/02 09:46:18;;;;;;;11.08;10.00;;;;;;;21.80;73.98;101042.63;3472304;80;20944;-80
2022/07/02 09:51:09;;;;;;;11.25;10.15;;;;;;;22.12;73.54;101050.66;3537984;79;21610;-80
2022/07/02 09:56:04;;;;;;;12.00;10.93;;;;;;;22.09;72.86;101049.83;3522066;80;21038;-80
2022/07/02 10:01:02;;;;;;;13.48;12.37;;;;;;;21.85;73.19;101061.03;3468242;80;21252;-80
2022/07/02 10:05:54;;;;;;;11.48;10.43;;;;;;;21.60;72.98;101065.58;3450314;82;21022;-80
2022/07/02 10:10:46;;;;;;;13.78;12.58;;;;;;;21.49;73.49;101061.00;3424842;81;20896;-79
2022/07/02 10:15:49;;;;;;;12.88;11.85;;;;;;;21.39;73.33;101062.96;3473623;80;22730;-80
2022/07/02 10:20:41;;;;;;;12.93;11.75;;;;;;;21.47;73.60;101068.96;3507395;80;21019;-80
2022/07/02 10:25:35;;;;;;;12.28;11.35;;;;;;;21.47;73.55;101074.25;3482543;78;20935;-79
2022/07/02 10:30:31;;;;;;;9.78;8.90;;;;;;;21.47;73.63;101074.72;3430742;81;20936;-79
2022/07/02 10:35:23;;;;;;;9.07;8.17;;;;;;;21.44;73.74;101073.42;3455631;81;21754;-80
2022/07/02 10:40:18;;;;;;;9.33;7.90;;;;;;;21.36;73.77;101082.86;3434179;79;21268;-80
2022/07/02 10:45:14;;;;;;;7.58;6.97;;;;;;;21.33;73.71;101093.03;3441703;79;20979;-81
2022/07/02 10:50:07;;;;;;;7.43;6.83;;;;;;;21.44;73.54;101087.50;3469155;80;20952;-81
2022/07/02 10:54:58;;;;;;;6.60;5.55;;;;;;;21.67;73.66;101086.16;3445296;80;20957;-80
2022/07/02 10:59:49;;;;;;;5.83;5.40;;;;;;;21.80;73.32;101092.02;3412721;82;21108;-81
2022/07/02 11:04:40;;;;;;;5.45;5.05;;;;;;;21.64;72.83;101081.81;3471799;79;21687;-81
2022/07/02 11:09:31;;;;;;;4.58;3.35;;;;;;;21.52;73.16;101091.36;3477901;79;20965;-81
2022/07/02 11:14:26;;;;;;;3.40;3.10;;;;;;;21.53;73.18;101089.57;3482864;79;21463;-80
2022/07/02 11:19:30;;;;;;;2.83;2.70;;;;;;;21.47;72.91;101092.77;3500232;79;20917;-80
2022/07/02 11:24:32;;;;;;;3.60;3.40;;;;;;;21.53;72.97;101101.02;3463134;79;21022;-80
2022/07/02 11:29:23;;;;;;;3.15;2.95;;;;;;;21.59;72.74;101107.51;3444459;81;22183;-81
2022/07/02 11:34:23;;;;;;;3.47;3.17;;;;;;;21.70;72.39;101102.83;3434063;81;20935;-80
2022/07/02 11:39:20;;;;;;;4.12;3.83;;;;;;;21.62;72.51;101100.84;3428789;79;20986;-80
2022/07/02 11:44:22;;;;;;;3.62;3.27;;;;;;;21.54;72.59;101106.73;3462397;79;20986;-80
2022/07/02 11:49:17;;;;;;;4.03;3.30;;;;;;;21.51;72.50;101102.83;3468445;81;20908;-81
2022/07/02 11:54:10;;;;;;;3.90;3.58;;;;;;;21.51;72.47;101111.63;3464881;79;21774;-80
2022/07/02 11:59:01;;;;;;;4.80;4.10;;;;;;;21.70;71.62;101110.77;3572582;78;21362;-81
2022/07/02 12:04:00;;;;;;;3.60;3.30;;;;;;;21.79;70.93;101114.13;3505947;78;21137;-80
2022/07/02 12:08:54;;;;;;;4.45;3.27;;;;;;;21.83;71.15;101121.94;3543784;78;21586;-80
2022/07/02 12:13:47;;;;;;;3.27;3.08;;;;;;;21.94;71.25;101130.09;3491297;79;20975;-81
2022/07/02 12:18:38;;;;;;;5.25;3.20;;;;;;;21.91;70.39;101136.34;3519495;79;21149;-81
2022/07/02 12:23:29;;;;;;;3.40;3.02;;;;;;;21.84;70.61;101145.33;3482319;78;21229;-80
2022/07/02 12:33:33;;;;;;;3.22;2.90;;;;;;;21.92;69.92;101149.11;3524666;79;20946;-81
2022/07/02 12:38:24;;;;;;;4.80;3.42;;;;;;;22.07;69.72;101143.00;3493827;80;20917;-80
2022/07/02 12:43:22;;;;;;;3.80;3.50;;;;;;;22.17;69.19;101142.31;3512690;79;22083;-80
2022/07/02 12:48:16;;;;;;;3.40;3.10;;;;;;;22.35;69.39;101141.02;3485454;80;21298;-81
2022/07/02 12:53:18;;;;;;;4.15;3.75;;;;;;;22.51;68.30;101141.95;3515855;79;21031;-81
2022/07/02 12:58:13;;;;;;;3.58;3.33;;;;;;;22.57;68.00;101147.08;3476350;80;20976;-81
2022/07/02 13:03:11;;;;;;;3.83;3.45;;;;;;;22.43;67.80;101147.00;3464282;80;20944;-80
2022/07/02 13:08:03;;;;;;;3.58;3.25;;;;;;;22.28;68.24;101144.73;3464804;81;21015;-81
2022/07/02 13:12:54;;;;;;;4.15;3.85;;;;;;;22.16;68.14;101156.48;3480136;78;21453;-80
2022/07/02 13:17:46;;;;;;;4.72;3.37;;;;;;;21.88;68.40;101153.14;3464836;80;20995;-81
2022/07/02 13:22:40;;;;;;;3.50;3.20;;;;;;;21.72;69.14;101154.86;3511816;80;21504;-81
2022/07/02 13:27:32;;;;;;;3.40;2.58;;;;;;;21.54;68.85;101164.08;3511660;80;20931;-81
2022/07/02 13:32:23;;;;;;;3.20;2.92;;;;;;;21.39;69.03;101155.53;3510026;80;21472;-80
2022/07/02 13:37:14;;;;;;;2.50;2.30;;;;;;;21.40;69.37;101161.69;3446325;80;20967;-80
2022/07/02 13:42:06;;;;;;;3.37;3.08;;;;;;;21.44;69.14;101164.67;3456956;80;20975;-80
2022/07/02 13:46:58;;;;;;;4.12;2.50;;;;;;;21.54;69.05;101151.71;3469071;80;21024;-80
2022/07/02 13:51:49;;;;;;;2.25;2.05;;;;;;;21.56;68.97;101155.19;3521427;80;20995;-81
2022/07/02 13:56:40;;;;;;;4.12;2.15;;;;;;;21.62;68.87;101156.83;3533749;80;21454;-80
2022/07/02 14:01:32;;;;;;;1.98;1.75;;;;;;;21.54;68.49;101161.44;3470687;80;21003;-80
2022/07/02 14:06:23;;;;;;;3.15;1.70;;;;;;;21.44;68.66;101160.70;3486870;80;21544;-80
2022/07/02 14:11:15;;;;;;;2.08;1.60;;;;;;;21.42;68.58;101174.42;3500210;80;21018;-80
2022/07/02 14:16:06;;;;;;;3.20;1.20;;;;;;;21.44;68.42;101177.91;3444748;80;21233;-80
2022/07/02 14:20:58;;;;;;;1.75;1.42;;;;;;;21.55;68.40;101167.98;3416735;80;21552;-80
2022/07/02 14:25:49;;;;;;;0.98;0.98;;;;;;;21.57;68.09;101171.50;3484614;81;21011;-80
2022/07/02 14:30:40;;;;;;;2.17;1.10;;;;;;;21.45;67.77;101176.58;3515519;79;22383;-81
2022/07/02 14:35:32;;;;;;;1.80;1.20;;;;;;;21.31;68.31;101179.47;3456717;81;21007;-80
2022/07/02 14:40:23;;;;;;;1.42;1.00;;;;;;;21.11;68.49;101177.23;3439716;79;20986;-82
2022/07/02 14:45:14;;;;;;;2.00;0.95;;;;;;;20.98;68.81;101180.13;3485699;79;22178;-82
2022/07/02 14:50:07;;;;;;;1.00;0.90;;;;;;;20.88;68.97;101186.91;3503298;79;21426;-81
2022/07/02 14:54:58;;;;;;;1.10;1.00;;;;;;;20.69;69.02;101184.17;3521498;78;21409;-81
2022/07/02 14:59:49;;;;;;;3.42;1.10;;;;;;;20.58;69.34;101185.65;3527881;78;20971;-78
2022/07/02 15:04:41;;;;;;;2.08;1.10;;;;;;;20.47;69.43;101187.16;3502757;78;21257;-80
2022/07/02 15:09:35;;;;;;;1.65;1.20;;;;;;;20.36;69.74;101186.47;3523936;77;22263;-80
2022/07/02 15:19:37;;;;;;;1.35;1.07;;;;;;;20.23;69.92;101189.76;3542518;79;21054;-80
2022/07/02 15:24:33;;;;;;;1.57;1.37;;;;;;;20.15;69.77;101176.66;3472141;79;21481;-80
2022/07/02 15:29:28;;;;;;;1.80;1.70;;;;;;;20.13;69.95;101186.37;3517032;79;21130;-80
2022/07/02 15:34:21;;;;;;;2.05;1.32;;;;;;;20.12;70.03;101184.64;3569802;77;21820;-79
2022/07/02 15:39:14;;;;;;;2.55;1.87;;;;;;;20.12;69.63;101185.96;3583738;77;20928;-77
2022/07/02 15:44:06;;;;;;;2.10;1.35;;;;;;;20.12;69.67;101193.88;3523225;78;20979;-76
2022/07/02 15:48:58;;;;;;;1.45;0.95;;;;;;;20.06;69.41;101187.36;3533704;77;20943;-76
2022/07/02 15:53:54;;;;;;;1.95;0.95;;;;;;;20.05;69.06;101196.19;3528506;78;21509;-77
2022/07/02 15:58:52;;;;;;;1.52;1.05;;;;;;;20.00;69.18;101195.38;3561662;78;22200;-76
2022/07/02 16:04:03;;;;;;;2.05;1.17;;;;;;;19.99;69.24;101192.30;3591050;78;20974;-77
2022/07/02 16:08:55;;;;;;;3.37;1.40;;;;;;;20.00;69.23;101194.92;3529908;79;20936;-77
2022/07/02 16:13:46;;;;;;;3.40;1.37;;;;;;;20.02;69.14;101192.27;3509755;78;20940;-77
2022/07/02 16:18:40;;;;;;;1.10;1.00;;;;;;;20.01;69.39;101187.87;3511481;79;21466;-77
2022/07/02 16:23:31;;;;;;;1.80;1.30;;;;;;;20.04;69.42;101193.11;3521138;79;21486;-77
2022/07/02 16:28:22;;;;;;;2.77;1.82;;;;;;;20.02;69.22;101189.63;3518603;80;20941;-77
2022/07/02 16:33:37;;;;;;;2.77;2.37;;;;;;;20.08;69.15;101186.88;3506100;80;20959;-77
2022/07/02 16:38:39;;;;;;;3.20;2.60;;;;;;;20.08;68.97;101193.48;3520822;79;23425;-77
2022/07/02 16:43:36;;;;;;;2.65;2.45;;;;;;;20.03;68.71;101196.66;3528309;80;20932;-77
2022/07/02 16:48:29;;;;;;;1.62;1.52;;;;;;;19.98;68.87;101195.85;3498978;79;21505;-77
2022/07/02 16:53:20;;;;;;;2.12;1.67;;;;;;;19.93;68.69;101206.91;3498797;80;21394;-77
2022/07/02 16:58:12;;;;;;;1.22;1.20;;;;;;;19.88;68.63;101210.06;3476634;81;21266;-77
2022/07/02 17:03:06;;;;;;;6.90;5.40;;;;;;;19.78;68.61;101211.52;3501752;81;21478;-77
2022/07/02 17:07:58;;;;;;;2.60;1.87;;;;;;;19.75;68.70;101212.86;3455762;81;21565;-77
2022/07/02 17:12:49;;;;;;;1.70;1.60;;;;;;;19.70;68.79;101214.65;3462366;80;20957;-77
2022/07/02 17:17:40;;;;;;;2.42;1.72;;;;;;;19.65;69.08;101216.47;3471269;80;21030;-77
2022/07/02 17:22:31;;;;;;;2.05;1.70;;;;;;;19.64;69.14;101214.74;3505984;80;21589;-77
2022/07/02 17:27:24;;;;;;;2.30;1.65;;;;;;;19.64;69.54;101218.70;3502446;79;20963;-77
2022/07/02 17:32:15;;;;;;;1.85;1.67;;;;;;;19.55;69.78;101221.45;3487312;80;20908;-76
2022/07/02 17:37:06;;;;;;;2.45;2.25;;;;;;;19.44;70.23;101220.23;3432032;80;22046;-77
2022/07/02 17:41:57;;;;;;;2.95;1.82;;;;;;;19.42;70.67;101214.11;3472470;80;20999;-77
2022/07/02 17:46:49;;;;;;;3.00;2.33;;;;;;;19.41;71.14;101209.29;3471552;80;22241;-76
2022/07/02 17:51:40;;;;;;;1.70;1.60;;;;;;;19.36;71.00;101209.78;3529601;80;20920;-77
2022/07/02 17:56:31;;;;;;;2.83;2.15;;;;;;;19.28;71.15;101211.66;3469291;80;21880;-77
2022/07/02 18:01:23;;;;;;;2.65;2.08;;;;;;;19.21;71.66;101206.02;3489748;80;21552;-77
2022/07/02 18:06:14;;;;;;;6.42;3.47;;;;;;;19.15;71.81;101205.63;3493093;79;20907;-77
2022/07/02 18:11:06;;;;;;;2.50;2.30;;;;;;;19.18;72.01;101208.69;3519579;79;20952;-77
2022/07/02 18:15:57;;;;;;;2.10;2.00;;;;;;;19.18;71.84;101211.32;3529153;78;20954;-77
2022/07/02 18:20:48;;;;;;;2.47;2.05;;;;;;;19.16;71.61;101206.52;3570479;78;21039;-77
2022/07/02 18:25:40;;;;;;;2.77;2.47;;;;;;;19.11;71.67;101207.00;3505000;79;21806;-76
2022/07/02 18:30:31;;;;;;;3.42;2.10;;;;;;;19.10;71.87;101209.20;3543480;79;21062;-77
2022/07/02 18:35:22;;;;;;;5.33;2.55;;;;;;;19.08;71.67;101201.76;3506145;79;20933;-76
2022/07/02 18:40:13;;;;;;;5.20;2.35;;;;;;;19.09;71.69;101203.52;3528762;78;21499;-76
2022/07/02 18:45:07;;;;;;;2.40;2.20;;;;;;;19.07;71.79;101209.25;3578842;78;20979;-76
2022/07/02 18:50:00;;;;;;;3.08;1.92;;;;;;;19.04;71.93;101203.09;3564888;79;21013;-76
2022/07/02 18:54:52;;;;;;;3.60;2.12;;;;;;;19.01;71.87;101200.52;3511510;79;20956;-76
2022/07/02 18:59:43;;;;;;;2.67;2.25;;;;;;;18.95;72.05;101205.83;3421105;81;20996;-76
2022/07/02 19:04:34;;;;;;;3.27;2.22;;;;;;;18.96;72.03;101207.59;3481209;81;20972;-76
2022/07/02 19:09:25;;;;;;;4.70;1.85;;;;;;;18.97;72.04;101205.37;3459533;79;20968;-76
2022/07/02 19:14:16;;;;;;;3.20;1.90;;;;;;;18.98;72.03;101197.91;3518961;79;21226;-76
2022/07/02 19:19:08;;;;;;;2.05;1.80;;;;;;;18.97;72.00;101201.42;3473376;79;20945;-76
2022/07/02 19:23:59;;;;;;;4.20;2.02;;;;;;;18.97;72.11;101208.45;3503333;79;21204;-77
2022/07/02 19:33:59;;;;;;;1.90;1.80;;;;;;;18.97;72.07;101198.78;3527423;78;21015;-76
2022/07/02 19:38:51;;;;;;;4.60;2.37;;;;;;;18.95;71.91;101195.75;3415774;80;21151;-76
2022/07/02 19:43:42;;;;;;;3.27;1.90;;;;;;;18.95;72.02;101201.88;3512248;80;20987;-76
2022/07/02 19:48:33;;;;;;;3.35;2.15;;;;;;;18.96;72.24;101202.33;3479296;80;20944;-76
2022/07/02 19:53:24;;;;;;;1.80;1.70;;;;;;;18.98;72.08;101202.31;3428563;80;21469;-77
2022/07/02 19:58:16;;;;;;;1.85;1.75;;;;;;;18.97;72.55;101211.09;3517608;80;20966;-77
2022/07/02 20:03:07;;;;;;;2.27;1.47;;;;;;;18.94;72.43;101208.05;3525189;80;21050;-77
2022/07/02 20:07:58;;;;;;;1.85;1.60;;;;;;;18.91;72.39;101201.49;3521289;79;20932;-77
2022/07/02 20:12:49;;;;;;;2.65;2.27;;;;;;;18.89;72.59;101208.55;3494301;79;20983;-77
2022/07/02 20:17:41;;;;;;;3.30;1.92;;;;;;;18.89;72.63;101212.50;3520455;79;21536;-76
2022/07/02 20:22:32;;;;;;;2.20;1.90;;;;;;;18.89;72.77;101212.50;3445090;79;20963;-76
2022/07/02 20:27:23;;;;;;;2.05;1.70;;;;;;;18.88;72.87;101202.83;3516089;79;21901;-77
2022/07/02 20:32:14;;;;;;;1.90;1.80;;;;;;;18.88;72.89;101204.14;3530098;79;21580;-76
2022/07/02 20:37:06;;;;;;;2.72;2.30;;;;;;;18.86;73.32;101196.70;3489754;79;20923;-77
2022/07/02 20:41:57;;;;;;;3.87;2.10;;;;;;;18.83;73.20;101200.26;3532091;79;22166;-77
2022/07/02 20:46:48;;;;;;;3.95;2.22;;;;;;;18.80;73.06;101199.37;3543472;79;20982;-76
2022/07/02 20:51:46;;;;;;;7.10;2.72;;;;;;;18.77;73.07;101203.35;3516575;79;21682;-76
2022/07/02 20:56:38;;;;;;;3.42;2.85;;;;;;;18.71;73.33;101212.19;3515994;79;21021;-77
2022/07/02 21:01:30;;;;;;;4.28;2.70;;;;;;;18.67;73.38;101206.08;3509795;78;21488;-77
2022/07/02 21:06:21;;;;;;;3.75;2.83;;;;;;;18.65;73.63;101214.86;3542032;78;20955;-76
2022/07/02 21:11:13;;;;;;;6.75;3.10;;;;;;;18.63;73.42;101212.23;3604228;78;20947;-76
2022/07/02 21:16:05;;;;;;;8.40;3.55;;;;;;;18.61;73.81;101211.38;3507989;79;21128;-77
2022/07/02 21:20:57;;;;;;;2.70;2.02;;;;;;;18.58;73.53;101215.38;3456709;79;20938;-77
2022/07/02 21:25:48;;;;;;;4.53;3.20;;;;;;;18.57;73.55;101212.75;3472209;79;21388;-77
2022/07/02 21:30:39;;;;;;;4.97;3.58;;;;;;;18.54;73.70;101214.95;3498057;79;20951;-77
2022/07/02 21:35:30;;;;;;;4.90;3.47;;;;;;;18.52;73.89;101210.14;3520526;79;20931;-77
2022/07/02 21:40:22;;;;;;;6.72;3.27;;;;;;;18.48;73.88;101209.74;3489054;78;21659;-76
2022/07/02 21:45:13;;;;;;;4.30;2.70;;;;;;;18.47;74.10;101215.88;3513704;78;22031;-76
2022/07/02 21:50:06;;;;;;;3.22;2.60;;;;;;;18.46;74.60;101214.16;3500146;79;21523;-77
2022/07/02 21:54:57;;;;;;;2.95;2.62;;;;;;;18.43;74.86;101220.30;3446424;80;20972;-77
2022/07/02 21:59:49;;;;;;;4.10;2.67;;;;;;;18.43;75.10;101224.70;3479114;80;21059;-77
2022/07/02 22:04:40;;;;;;;3.02;2.52;;;;;;;18.40;75.17;101220.77;3529475;78;21030;-77
2022/07/02 22:09:31;;;;;;;2.65;2.30;;;;;;;18.41;75.06;101215.94;3480565;79;21173;-77
2022/07/02 22:14:22;;;;;;;5.20;3.27;;;;;;;18.40;75.22;101206.28;3465423;80;20960;-77
2022/07/02 22:19:14;;;;;;;3.35;2.87;;;;;;;18.38;75.10;101218.59;3478067;80;20979;-77
2022/07/02 22:24:05;;;;;;;4.17;2.75;;;;;;;18.38;75.04;101210.69;3493046;80;21466;-77
2022/07/02 22:28:56;;;;;;;3.75;2.67;;;;;;;18.38;74.99;101212.01;3505774;80;21617;-77
2022/07/02 22:33:47;;;;;;;2.85;2.65;;;;;;;18.39;75.02;101207.19;3497224;80;21269;-78
2022/07/02 22:38:39;;;;;;;3.55;2.62;;;;;;;18.38;74.77;101210.69;3483146;78;21528;-78
2022/07/02 22:43:33;;;;;;;4.10;3.70;;;;;;;18.33;74.70;101199.31;3541340;79;20928;-78
2022/07/02 22:48:24;;;;;;;3.55;2.85;;;;;;;18.29;74.76;101198.02;3494814;80;20938;-78
2022/07/02 22:53:15;;;;;;;4.92;3.02;;;;;;;18.24;74.62;101195.89;3472438;80;21670;-78
2022/07/02 22:58:07;;;;;;;4.10;3.10;;;;;;;18.21;74.63;101200.30;3534581;80;20905;-78